Terminal Aerodrome Forecast
Issued by NWS

Home | Current Version | Previous Version | Text Only | Print | Product List | Glossary Off
Versions: 1 2 3 4 5 6 7 8 9 10 11 12

810
FTUS42 KMHX 251137
TAFOAJ
TAF
KOAJ 251137Z 2512/2612 00000KT 5SM BR SCT005
      TEMPO 2512/2513 1SM BR OVC003
     FM251300 20006KT P6SM SCT250
     FM251800 21011G20KT P6SM SCT090
     FM260100 25009KT P6SM SCT250
     FM260300 31007KT P6SM FEW250
      AMD LTD TO CLD VIS AND WIND=

USA.gov is the U.S. government's official web portal to all federal, state and local government web resources and services.